createdAt,value
2023-05-06T00:04:44.506Z,0.67
2023-05-06T00:09:51.818Z,6.00
2023-05-06T00:14:57.913Z,4.00
2023-05-06T00:20:04.142Z,4.00
2023-05-06T00:25:10.805Z,3.00
2023-05-06T00:30:17.272Z,21.33
2023-05-06T00:35:23.468Z,14.75
2023-05-06T00:40:28.446Z,8.00
2023-05-06T00:45:33.975Z,2.00
2023-05-06T00:50:42.185Z,2.00
2023-05-06T00:55:48.412Z,5.33
2023-05-06T01:00:53.693Z,6.00
2023-05-06T01:06:30.836Z,10.00
2023-05-06T01:11:40.263Z,6.00
2023-05-06T01:16:49.322Z,3.50
2023-05-06T01:21:57.890Z,2.00
2023-05-06T01:32:23.389Z,2.00
2023-05-06T01:37:40.506Z,6.00
2023-05-06T01:42:53.244Z,2.00
2023-05-06T01:47:59.353Z,7.33
2023-05-06T01:53:05.923Z,0.00
2023-05-06T01:58:12.689Z,6.00
2023-05-06T02:03:20.288Z,6.00
2023-05-06T02:08:25.915Z,15.50
2023-05-06T02:13:31.335Z,4.00
2023-05-06T02:18:37.217Z,2.00
2023-05-06T02:23:44.098Z,4.00
2023-05-06T02:28:49.137Z,8.67
2023-05-06T02:33:54.086Z,6.00
2023-05-06T02:38:58.855Z,7.00
2023-05-06T02:44:03.844Z,10.00
2023-05-06T02:49:08.969Z,11.00
2023-05-06T02:59:19.586Z,6.00
2023-05-06T03:04:24.788Z,3.00
2023-05-06T03:09:29.987Z,10.00
2023-05-06T03:14:35.482Z,2.50
2023-05-06T03:19:40.752Z,3.00
2023-05-06T03:29:52.826Z,6.67
2023-05-06T03:35:00.329Z,8.00
2023-05-06T03:40:07.256Z,4.00
2023-05-06T03:45:12.679Z,6.00
2023-05-06T03:50:19.491Z,4.00
2023-05-06T03:55:25.305Z,2.00
2023-05-06T04:00:30.710Z,8.00
2023-05-06T04:05:35.833Z,8.50
2023-05-06T04:10:44.797Z,8.50
2023-05-06T04:16:01.334Z,13.00
2023-05-06T04:21:14.313Z,8.50
2023-05-06T04:26:24.534Z,2.00
2023-05-06T04:31:33.835Z,4.00
2023-05-06T04:36:42.371Z,1.50
2023-05-06T04:42:05.034Z,2.50
2023-05-06T04:47:18.525Z,3.00
2023-05-06T04:52:27.504Z,7.33
2023-05-06T04:57:33.692Z,2.00
2023-05-06T05:02:40.178Z,0.00
2023-05-06T05:07:45.660Z,2.00
2023-05-06T05:12:51.448Z,4.00
2023-05-06T05:17:56.967Z,5.50
2023-05-06T05:23:02.388Z,1.33
2023-05-06T05:28:07.651Z,2.67
2023-05-06T05:33:14.833Z,2.00
2023-05-06T05:38:21.078Z,7.00
2023-05-06T05:43:28.172Z,2.00
2023-05-06T05:48:35.280Z,5.50
2023-05-06T05:53:41.459Z,2.67
2023-05-06T05:58:48.636Z,0.00
2023-05-06T06:03:55.649Z,10.67
2023-05-06T06:09:02.069Z,2.67
2023-05-06T06:14:07.078Z,0.50
2023-05-06T06:19:13.325Z,2.00
2023-05-06T06:24:18.501Z,2.00
2023-05-06T06:29:23.362Z,8.00
2023-05-06T06:34:29.907Z,2.00
2023-05-06T06:39:35.200Z,7.00
2023-05-06T06:44:40.382Z,4.00
2023-05-06T06:49:45.488Z,2.00
2023-05-06T06:54:50.676Z,2.00
2023-05-06T06:59:56.849Z,4.00
2023-05-06T07:05:02.517Z,2.00
2023-05-06T07:10:08.538Z,0.00
2023-05-06T07:15:14.824Z,8.50
2023-05-06T07:20:20.941Z,8.00
2023-05-06T07:25:26.854Z,11.00
2023-05-06T07:30:32.158Z,10.00
2023-05-06T07:35:37.126Z,4.67
2023-05-06T07:40:42.584Z,2.00
2023-05-06T07:45:47.696Z,5.50
2023-05-06T07:50:52.811Z,11.00
2023-05-06T07:56:03.176Z,4.00
2023-05-06T08:01:08.213Z,10.00
2023-05-06T08:06:13.251Z,11.33
2023-05-06T08:11:20.403Z,4.00
2023-05-06T08:16:26.481Z,9.25
2023-05-06T08:21:31.374Z,2.00
2023-05-06T08:26:38.110Z,4.00
2023-05-06T08:31:43.272Z,6.67
2023-05-06T08:36:48.765Z,43.67
2023-05-06T08:41:56.252Z,35.00
2023-05-06T08:47:01.538Z,17.00
2023-05-06T08:52:08.045Z,19.00
2023-05-06T08:57:15.512Z,18.50
2023-05-06T09:02:20.897Z,49.00
2023-05-06T09:07:26.885Z,17.25
2023-05-06T09:12:31.939Z,17.33
2023-05-06T09:17:38.221Z,9.33
2023-05-06T09:22:44.045Z,15.75
2023-05-06T09:27:49.037Z,14.33
2023-05-06T09:37:59.152Z,135.50
2023-05-06T09:43:04.864Z,195.00
2023-05-06T09:48:11.026Z,50.00
2023-05-06T09:53:19.306Z,81.50
2023-05-06T09:58:25.343Z,49.50
2023-05-06T10:03:31.402Z,119.33
2023-05-06T10:08:38.733Z,202.67
2023-05-06T10:13:46.198Z,50.00
2023-05-06T10:18:53.900Z,34.67
2023-05-06T10:24:10.482Z,26.33
2023-05-06T10:29:15.778Z,18.00
2023-05-06T10:34:23.598Z,27.25
2023-05-06T10:39:29.037Z,38.00
2023-05-06T10:45:07.474Z,24.00
2023-05-06T10:50:33.891Z,50.00
2023-05-06T10:55:39.870Z,154.00
2023-05-06T11:00:57.867Z,50.00
2023-05-06T11:06:03.562Z,50.00
2023-05-06T11:11:51.280Z,105.33
2023-05-06T11:16:59.163Z,28.25
2023-05-06T11:22:07.113Z,36.33
2023-05-06T11:27:13.738Z,39.00
2023-05-06T11:32:27.439Z,38.33
2023-05-06T11:37:33.180Z,40.75
2023-05-06T11:42:39.343Z,25.75
2023-05-06T11:47:47.958Z,27.50
2023-05-06T11:52:54.049Z,47.67
2023-05-06T11:57:59.450Z,31.50
2023-05-06T12:08:23.521Z,36.67
2023-05-06T12:13:32.671Z,40.00
2023-05-06T12:18:38.480Z,39.67
2023-05-06T12:23:54.236Z,28.25
2023-05-06T12:29:17.020Z,27.50
2023-05-06T12:34:39.671Z,25.33
2023-05-06T12:39:46.229Z,28.00
2023-05-06T12:44:52.522Z,19.00
2023-05-06T12:50:02.112Z,15.00
2023-05-06T12:55:08.368Z,17.67
2023-05-06T13:00:15.128Z,24.50
2023-05-06T13:05:23.378Z,26.25
2023-05-06T13:10:29.222Z,22.75
2023-05-06T13:15:34.951Z,40.25
2023-05-06T13:20:41.572Z,34.00
2023-05-06T13:26:02.949Z,21.33
2023-05-06T13:31:11.283Z,29.00
2023-05-06T13:36:16.546Z,13.50
2023-05-06T13:41:22.648Z,13.33
2023-05-06T13:46:30.310Z,14.00
2023-05-06T13:51:38.504Z,7.33
2023-05-06T13:56:44.778Z,10.00
2023-05-06T14:01:51.316Z,6.00
2023-05-06T14:06:57.270Z,13.50
2023-05-06T14:12:02.812Z,6.67
2023-05-06T14:17:08.476Z,6.50
2023-05-06T14:22:14.148Z,2.00
2023-05-06T14:27:19.629Z,14.33
2023-05-06T14:32:25.020Z,10.67
2023-05-06T14:37:31.607Z,10.50
2023-05-06T14:42:37.200Z,8.00
2023-05-06T14:47:44.558Z,11.50
2023-05-06T14:52:49.881Z,3.00
2023-05-06T14:57:55.488Z,12.00
2023-05-06T15:03:00.679Z,10.00
2023-05-06T15:08:09.235Z,8.50
2023-05-06T15:13:14.420Z,4.67
2023-05-06T15:18:19.694Z,14.33
2023-05-06T15:23:24.937Z,14.33
2023-05-06T15:28:33.593Z,10.00
2023-05-06T15:33:39.137Z,13.00
2023-05-06T15:39:04.645Z,8.00
2023-05-06T15:49:45.429Z,6.00
2023-05-06T15:54:41.215Z,4.00
2023-05-06T15:59:46.857Z,16.50
2023-05-06T16:04:52.192Z,15.00
2023-05-06T16:09:58.194Z,15.33
2023-05-06T16:15:07.266Z,19.50
2023-05-06T16:20:14.191Z,12.67
2023-05-06T16:25:20.825Z,8.00
2023-05-06T16:30:26.464Z,6.00
2023-05-06T16:35:31.848Z,12.50
2023-05-06T16:40:43.948Z,12.00
2023-05-06T16:45:49.290Z,12.00
2023-05-06T16:50:54.276Z,13.50
2023-05-06T16:55:59.364Z,4.67
2023-05-06T17:01:06.004Z,7.00
2023-05-06T17:06:11.166Z,4.00
2023-05-06T17:16:24.469Z,9.00
2023-05-06T17:21:29.358Z,15.00
2023-05-06T17:26:37.231Z,5.00
2023-05-06T17:31:42.134Z,14.67
2023-05-06T17:36:47.109Z,4.00
2023-05-06T17:41:52.201Z,2.00
2023-05-06T17:46:58.554Z,2.00
2023-05-06T17:52:03.531Z,8.00
2023-05-06T17:57:09.479Z,6.67
2023-05-06T18:02:17.198Z,2.00
2023-05-06T18:07:22.324Z,4.00
2023-05-06T18:12:28.399Z,4.00
2023-05-06T18:17:33.354Z,3.33
2023-05-06T18:22:40.208Z,5.00
2023-05-06T18:27:45.837Z,5.50
2023-05-06T18:32:51.832Z,2.00
2023-05-06T18:37:57.874Z,3.00
2023-05-06T18:43:03.081Z,5.00
2023-05-06T18:48:08.352Z,10.50
2023-05-06T18:53:13.465Z,2.00
2023-05-06T18:58:19.959Z,2.67
2023-05-06T19:03:25.425Z,2.50
2023-05-06T19:08:32.317Z,2.00
2023-05-06T19:13:37.614Z,2.00
2023-05-06T19:18:42.615Z,2.00
2023-05-06T19:23:47.786Z,6.00
2023-05-06T19:28:52.864Z,0.67
2023-05-06T19:33:58.180Z,4.00
2023-05-06T19:39:03.144Z,8.00
2023-05-06T19:44:08.630Z,7.00
2023-05-06T19:49:13.791Z,2.00
2023-05-06T19:54:20.655Z,10.00
2023-05-06T19:59:25.768Z,2.00
2023-05-06T20:04:31.073Z,10.00
2023-05-06T20:09:35.873Z,2.00
2023-05-06T20:14:40.830Z,9.50
2023-05-06T20:19:46.598Z,12.00
2023-05-06T20:24:53.529Z,10.00
2023-05-06T20:29:58.750Z,2.00
2023-05-06T20:35:03.869Z,9.50
2023-05-06T20:40:09.918Z,6.00
2023-05-06T20:45:15.282Z,4.50
2023-05-06T20:50:20.501Z,2.00
2023-05-06T20:55:26.560Z,8.00
2023-05-06T21:00:32.010Z,8.50
2023-05-06T21:05:36.855Z,34.50
2023-05-06T21:10:41.761Z,37.00
2023-05-06T21:15:46.948Z,28.25
2023-05-06T21:20:53.696Z,13.50
2023-05-06T21:26:01.321Z,16.00
2023-05-06T21:31:06.418Z,5.00
2023-05-06T21:36:11.792Z,12.00
2023-05-06T21:41:18.764Z,12.00
2023-05-06T21:46:23.688Z,4.00
2023-05-06T21:51:34.233Z,7.50
2023-05-06T21:56:39.285Z,21.33
2023-05-06T22:01:44.201Z,50.00
2023-05-06T22:06:49.090Z,10.00
2023-05-06T22:11:54.865Z,6.00
2023-05-06T22:16:59.734Z,6.00
2023-05-06T22:22:05.557Z,7.00
2023-05-06T22:27:12.169Z,6.00
2023-05-06T22:32:17.130Z,11.50
2023-05-06T22:37:22.270Z,27.00
2023-05-06T22:42:27.524Z,10.00
2023-05-06T22:47:32.708Z,9.33
2023-05-06T22:52:38.176Z,37.50
2023-05-06T22:57:43.019Z,13.00
2023-05-06T23:02:48.025Z,14.25
2023-05-06T23:07:54.201Z,21.00
2023-05-06T23:13:05.180Z,6.00
2023-05-06T23:18:10.255Z,14.00
2023-05-06T23:23:16.468Z,10.00
2023-05-06T23:28:22.547Z,4.00
2023-05-06T23:33:28.088Z,11.50
2023-05-06T23:38:33.191Z,10.00
2023-05-06T23:43:38.070Z,13.25
2023-05-06T23:48:42.991Z,8.00
2023-05-06T23:53:47.966Z,9.00
2023-05-06T23:58:53.020Z,6.00
